sensor_id;sensor_type;location;lat;lon;timestamp;pressure;altitude;pressure_sealevel;temperature;humidity
52319;BME280;38258;51.148;14.068;2023-07-29T00:01:25;97727.22;;;15.45;100.00
52319;BME280;38258;51.148;14.068;2023-07-29T00:03:52;97724.53;;;15.46;100.00
52319;BME280;38258;51.148;14.068;2023-07-29T00:06:19;97725.53;;;15.44;100.00
52319;BME280;38258;51.148;14.068;2023-07-29T00:08:47;97723.09;;;15.40;100.00
52319;BME280;38258;51.148;14.068;2023-07-29T00:11:14;97720.72;;;15.36;100.00
52319;BME280;38258;51.148;14.068;2023-07-29T00:13:40;97716.75;;;15.29;100.00
52319;BME280;38258;51.148;14.068;2023-07-29T00:16:07;97715.22;;;15.24;100.00
52319;BME280;38258;51.148;14.068;2023-07-29T00:18:34;97712.38;;;15.13;100.00
52319;BME280;38258;51.148;14.068;2023-07-29T00:21:01;97715.38;;;15.07;100.00
52319;BME280;38258;51.148;14.068;2023-07-29T00:23:29;97713.16;;;14.99;100.00
52319;BME280;38258;51.148;14.068;2023-07-29T00:25:57;97699.31;;;14.95;100.00
52319;BME280;38258;51.148;14.068;2023-07-29T00:28:24;97706.47;;;14.93;100.00
52319;BME280;38258;51.148;14.068;2023-07-29T00:30:50;97706.84;;;14.87;100.00
52319;BME280;38258;51.148;14.068;2023-07-29T00:33:17;97710.47;;;14.84;100.00
52319;BME280;38258;51.148;14.068;2023-07-29T00:35:45;97709.03;;;14.79;100.00
52319;BME280;38258;51.148;14.068;2023-07-29T00:38:12;97703.00;;;14.77;100.00
52319;BME280;38258;51.148;14.068;2023-07-29T00:40:39;97699.44;;;14.78;100.00
52319;BME280;38258;51.148;14.068;2023-07-29T00:43:07;97697.00;;;14.75;100.00
52319;BME280;38258;51.148;14.068;2023-07-29T00:45:35;97699.84;;;14.70;100.00
52319;BME280;38258;51.148;14.068;2023-07-29T00:48:02;97702.47;;;14.70;100.00
52319;BME280;38258;51.148;14.068;2023-07-29T00:50:30;97698.97;;;14.69;100.00
52319;BME280;38258;51.148;14.068;2023-07-29T00:53:00;97694.75;;;14.67;100.00
52319;BME280;38258;51.148;14.068;2023-07-29T00:55:27;97696.34;;;14.69;100.00
52319;BME280;38258;51.148;14.068;2023-07-29T00:57:54;97696.53;;;14.66;100.00
52319;BME280;38258;51.148;14.068;2023-07-29T01:00:22;97691.91;;;14.72;100.00
52319;BME280;38258;51.148;14.068;2023-07-29T01:02:50;97701.50;;;14.73;100.00
52319;BME280;38258;51.148;14.068;2023-07-29T01:05:18;97693.25;;;14.79;100.00
52319;BME280;38258;51.148;14.068;2023-07-29T01:07:49;97687.16;;;14.78;100.00
52319;BME280;38258;51.148;14.068;2023-07-29T01:10:26;97689.00;;;14.76;100.00
52319;BME280;38258;51.148;14.068;2023-07-29T01:13:01;97689.28;;;14.72;100.00
52319;BME280;38258;51.148;14.068;2023-07-29T01:15:38;97686.25;;;14.62;100.00
52319;BME280;38258;51.148;14.068;2023-07-29T01:18:11;97683.03;;;14.56;100.00
52319;BME280;38258;51.148;14.068;2023-07-29T01:20:43;97685.16;;;14.50;100.00
52319;BME280;38258;51.148;14.068;2023-07-29T01:23:12;97683.66;;;14.46;100.00
52319;BME280;38258;51.148;14.068;2023-07-29T01:25:40;97683.16;;;14.39;100.00
52319;BME280;38258;51.148;14.068;2023-07-29T01:28:07;97681.88;;;14.30;100.00
52319;BME280;38258;51.148;14.068;2023-07-29T01:30:42;97683.63;;;14.30;100.00
52319;BME280;38258;51.148;14.068;2023-07-29T01:33:14;97683.22;;;14.21;100.00
52319;BME280;38258;51.148;14.068;2023-07-29T01:35:45;97683.53;;;14.15;100.00
52319;BME280;38258;51.148;14.068;2023-07-29T01:38:14;97694.41;;;14.09;100.00
52319;BME280;38258;51.148;14.068;2023-07-29T01:40:45;97684.41;;;14.16;100.00
52319;BME280;38258;51.148;14.068;2023-07-29T01:43:12;97683.53;;;14.15;100.00
52319;BME280;38258;51.148;14.068;2023-07-29T01:45:39;97674.72;;;14.16;100.00
52319;BME280;38258;51.148;14.068;2023-07-29T01:48:07;97681.19;;;14.26;100.00
52319;BME280;38258;51.148;14.068;2023-07-29T01:50:34;97672.94;;;14.49;100.00
52319;BME280;38258;51.148;14.068;2023-07-29T01:53:01;97672.44;;;14.58;100.00
52319;BME280;38258;51.148;14.068;2023-07-29T01:55:28;97662.94;;;14.55;100.00
52319;BME280;38258;51.148;14.068;2023-07-29T01:57:57;97672.00;;;14.50;100.00
52319;BME280;38258;51.148;14.068;2023-07-29T02:00:24;97670.41;;;14.47;100.00
52319;BME280;38258;51.148;14.068;2023-07-29T02:02:51;97672.94;;;14.49;100.00
52319;BME280;38258;51.148;14.068;2023-07-29T02:05:18;97671.94;;;14.51;100.00
52319;BME280;38258;51.148;14.068;2023-07-29T02:07:44;97675.91;;;14.59;100.00
52319;BME280;38258;51.148;14.068;2023-07-29T02:10:11;97675.22;;;14.55;100.00
52319;BME280;38258;51.148;14.068;2023-07-29T02:12:38;97672.59;;;14.55;100.00
52319;BME280;38258;51.148;14.068;2023-07-29T02:15:07;97674.47;;;14.53;100.00
52319;BME280;38258;51.148;14.068;2023-07-29T02:17:35;97670.81;;;14.55;100.00
52319;BME280;38258;51.148;14.068;2023-07-29T02:20:02;97674.22;;;14.57;100.00
52319;BME280;38258;51.148;14.068;2023-07-29T02:22:29;97675.75;;;14.78;100.00
52319;BME280;38258;51.148;14.068;2023-07-29T02:24:56;97675.06;;;14.74;100.00
52319;BME280;38258;51.148;14.068;2023-07-29T02:27:23;97681.69;;;14.65;100.00
52319;BME280;38258;51.148;14.068;2023-07-29T02:29:51;97683.38;;;14.66;100.00
52319;BME280;38258;51.148;14.068;2023-07-29T02:32:19;97683.88;;;14.89;100.00
52319;BME280;38258;51.148;14.068;2023-07-29T02:34:46;97678.63;;;14.73;100.00
52319;BME280;38258;51.148;14.068;2023-07-29T02:37:13;97686.94;;;14.65;100.00
52319;BME280;38258;51.148;14.068;2023-07-29T02:39:40;97676.91;;;14.56;100.00
52319;BME280;38258;51.148;14.068;2023-07-29T02:42:07;97678.03;;;14.52;100.00
52319;BME280;38258;51.148;14.068;2023-07-29T02:44:33;97673.81;;;14.49;100.00
52319;BME280;38258;51.148;14.068;2023-07-29T02:47:00;97676.84;;;14.41;100.00
52319;BME280;38258;51.148;14.068;2023-07-29T02:49:28;97682.03;;;14.43;100.00
52319;BME280;38258;51.148;14.068;2023-07-29T02:51:55;97683.22;;;14.53;100.00
52319;BME280;38258;51.148;14.068;2023-07-29T02:54:22;97689.00;;;14.76;100.00
52319;BME280;38258;51.148;14.068;2023-07-29T02:56:50;97684.72;;;14.90;100.00
52319;BME280;38258;51.148;14.068;2023-07-29T02:59:17;97685.59;;;14.90;100.00
52319;BME280;38258;51.148;14.068;2023-07-29T03:01:43;97684.16;;;14.84;100.00
52319;BME280;38258;51.148;14.068;2023-07-29T03:04:11;97694.66;;;15.01;100.00
52319;BME280;38258;51.148;14.068;2023-07-29T03:06:40;97692.34;;;15.10;100.00
52319;BME280;38258;51.148;14.068;2023-07-29T03:09:08;97694.59;;;15.17;100.00
52319;BME280;38258;51.148;14.068;2023-07-29T03:11:35;97698.81;;;15.35;100.00
52319;BME280;38258;51.148;14.068;2023-07-29T03:14:01;97703.44;;;15.46;100.00
52319;BME280;38258;51.148;14.068;2023-07-29T03:16:29;97705.03;;;15.63;100.00
52319;BME280;38258;51.148;14.068;2023-07-29T03:18:57;97698.66;;;15.67;100.00
52319;BME280;38258;51.148;14.068;2023-07-29T03:21:26;97704.88;;;15.66;100.00
52319;BME280;38258;51.148;14.068;2023-07-29T03:23:54;97711.75;;;15.69;100.00
52319;BME280;38258;51.148;14.068;2023-07-29T03:26:20;97709.59;;;15.76;100.00
52319;BME280;38258;51.148;14.068;2023-07-29T03:28:47;97707.34;;;15.84;100.00
52319;BME280;38258;51.148;14.068;2023-07-29T03:31:14;97706.59;;;15.82;100.00
52319;BME280;38258;51.148;14.068;2023-07-29T03:33:41;97708.78;;;15.90;100.00
52319;BME280;38258;51.148;14.068;2023-07-29T03:36:08;97701.72;;;15.90;100.00
52319;BME280;38258;51.148;14.068;2023-07-29T03:38:35;97710.69;;;16.02;100.00
52319;BME280;38258;51.148;14.068;2023-07-29T03:41:06;97704.34;;;16.05;100.00
52319;BME280;38258;51.148;14.068;2023-07-29T03:43:33;97708.19;;;16.14;100.00
52319;BME280;38258;51.148;14.068;2023-07-29T03:46:01;97700.47;;;16.10;100.00
52319;BME280;38258;51.148;14.068;2023-07-29T03:48:28;97701.91;;;16.16;100.00
52319;BME280;38258;51.148;14.068;2023-07-29T03:50:56;97700.09;;;16.31;100.00
52319;BME280;38258;51.148;14.068;2023-07-29T03:53:23;97703.84;;;16.42;100.00
52319;BME280;38258;51.148;14.068;2023-07-29T03:55:50;97703.66;;;16.45;100.00
52319;BME280;38258;51.148;14.068;2023-07-29T03:58:18;97695.75;;;16.45;100.00
52319;BME280;38258;51.148;14.068;2023-07-29T04:00:45;97698.28;;;16.46;100.00
52319;BME280;38258;51.148;14.068;2023-07-29T04:03:12;97697.59;;;16.57;100.00
52319;BME280;38258;51.148;14.068;2023-07-29T04:05:39;97699.19;;;16.60;100.00
52319;BME280;38258;51.148;14.068;2023-07-29T04:08:06;97696.44;;;16.61;100.00
52319;BME280;38258;51.148;14.068;2023-07-29T04:10:32;97699.25;;;16.73;100.00
52319;BME280;38258;51.148;14.068;2023-07-29T04:13:00;97708.47;;;16.80;100.00
52319;BME280;38258;51.148;14.068;2023-07-29T04:15:28;97706.81;;;16.92;100.00
52319;BME280;38258;51.148;14.068;2023-07-29T04:17:56;97701.84;;;16.87;100.00
52319;BME280;38258;51.148;14.068;2023-07-29T04:20:22;97708.78;;;17.03;100.00
52319;BME280;38258;51.148;14.068;2023-07-29T04:22:49;97694.72;;;17.02;100.00
52319;BME280;38258;51.148;14.068;2023-07-29T04:25:16;97689.88;;;17.09;100.00
52319;BME280;38258;51.148;14.068;2023-07-29T04:27:43;97699.41;;;17.12;100.00
52319;BME280;38258;51.148;14.068;2023-07-29T04:30:10;97699.00;;;17.18;100.00
52319;BME280;38258;51.148;14.068;2023-07-29T04:32:38;97694.78;;;17.28;100.00
52319;BME280;38258;51.148;14.068;2023-07-29T04:35:07;97699.56;;;17.36;100.00
52319;BME280;38258;51.148;14.068;2023-07-29T04:37:36;97696.81;;;17.50;100.00
52319;BME280;38258;51.148;14.068;2023-07-29T04:40:03;97698.44;;;17.53;100.00
52319;BME280;38258;51.148;14.068;2023-07-29T04:42:30;97696.31;;;17.58;100.00
52319;BME280;38258;51.148;14.068;2023-07-29T04:44:57;97695.03;;;17.64;100.00
52319;BME280;38258;51.148;14.068;2023-07-29T04:47:24;97705.31;;;17.69;100.00
52319;BME280;38258;51.148;14.068;2023-07-29T04:49:52;97696.72;;;17.78;100.00
52319;BME280;38258;51.148;14.068;2023-07-29T04:52:19;97701.47;;;17.86;100.00
52319;BME280;38258;51.148;14.068;2023-07-29T04:54:46;97696.41;;;17.95;100.00
52319;BME280;38258;51.148;14.068;2023-07-29T04:57:13;97692.63;;;17.87;100.00
52319;BME280;38258;51.148;14.068;2023-07-29T04:59:39;97682.75;;;18.02;100.00
52319;BME280;38258;51.148;14.068;2023-07-29T05:02:06;97689.22;;;18.11;100.00
52319;BME280;38258;51.148;14.068;2023-07-29T05:04:33;97687.22;;;18.14;100.00
52319;BME280;38258;51.148;14.068;2023-07-29T05:07:01;97697.97;;;18.24;100.00
52319;BME280;38258;51.148;14.068;2023-07-29T05:09:28;97691.97;;;18.22;100.00
52319;BME280;38258;51.148;14.068;2023-07-29T05:11:54;97690.69;;;18.28;100.00
52319;BME280;38258;51.148;14.068;2023-07-29T05:14:21;97681.28;;;18.23;100.00
52319;BME280;38258;51.148;14.068;2023-07-29T05:16:48;97689.16;;;18.36;100.00
52319;BME280;38258;51.148;14.068;2023-07-29T05:19:15;97692.31;;;18.42;100.00
52319;BME280;38258;51.148;14.068;2023-07-29T05:21:42;97696.09;;;18.50;100.00
52319;BME280;38258;51.148;14.068;2023-07-29T05:24:10;97694.00;;;18.56;100.00
52319;BME280;38258;51.148;14.068;2023-07-29T05:26:37;97690.38;;;18.57;100.00
52319;BME280;38258;51.148;14.068;2023-07-29T05:29:04;97690.69;;;18.65;100.00
52319;BME280;38258;51.148;14.068;2023-07-29T05:31:31;97689.16;;;18.74;100.00
52319;BME280;38258;51.148;14.068;2023-07-29T05:33:58;97689.19;;;18.61;100.00
52319;BME280;38258;51.148;14.068;2023-07-29T05:36:25;97689.38;;;18.71;100.00
52319;BME280;38258;51.148;14.068;2023-07-29T05:38:52;97694.41;;;18.62;100.00
52319;BME280;38258;51.148;14.068;2023-07-29T05:41:20;97695.69;;;18.57;100.00
52319;BME280;38258;51.148;14.068;2023-07-29T05:43:47;97694.56;;;18.48;100.00
52319;BME280;38258;51.148;14.068;2023-07-29T05:46:14;97699.53;;;18.53;100.00
52319;BME280;38258;51.148;14.068;2023-07-29T05:48:41;97688.56;;;18.57;100.00
52319;BME280;38258;51.148;14.068;2023-07-29T05:51:08;97692.72;;;18.86;100.00
52319;BME280;38258;51.148;14.068;2023-07-29T05:53:35;97689.81;;;19.38;100.00
52319;BME280;38258;51.148;14.068;2023-07-29T05:56:02;97685.16;;;19.64;100.00
52319;BME280;38258;51.148;14.068;2023-07-29T05:58:30;97681.06;;;19.71;100.00
52319;BME280;38258;51.148;14.068;2023-07-29T06:00:57;97683.72;;;19.60;100.00
52319;BME280;38258;51.148;14.068;2023-07-29T06:03:24;97677.81;;;19.68;100.00
52319;BME280;38258;51.148;14.068;2023-07-29T06:05:51;97676.72;;;19.82;100.00
52319;BME280;38258;51.148;14.068;2023-07-29T06:08:18;97670.22;;;19.74;100.00
52319;BME280;38258;51.148;14.068;2023-07-29T06:10:45;97671.69;;;19.90;100.00
52319;BME280;38258;51.148;14.068;2023-07-29T06:13:11;97667.19;;;19.79;100.00
52319;BME280;38258;51.148;14.068;2023-07-29T06:15:39;97658.66;;;19.98;100.00
52319;BME280;38258;51.148;14.068;2023-07-29T06:18:06;97658.91;;;19.95;100.00
52319;BME280;38258;51.148;14.068;2023-07-29T06:20:33;97656.25;;;20.06;100.00
52319;BME280;38258;51.148;14.068;2023-07-29T06:23:00;97640.94;;;20.10;100.00
52319;BME280;38258;51.148;14.068;2023-07-29T06:25:27;97645.75;;;20.28;100.00
52319;BME280;38258;51.148;14.068;2023-07-29T06:27:54;97648.13;;;20.42;100.00
52319;BME280;38258;51.148;14.068;2023-07-29T06:30:21;97648.75;;;20.34;100.00
52319;BME280;38258;51.148;14.068;2023-07-29T06:32:49;97650.28;;;20.48;100.00
52319;BME280;38258;51.148;14.068;2023-07-29T06:35:16;97647.00;;;20.56;100.00
52319;BME280;38258;51.148;14.068;2023-07-29T06:37:42;97651.75;;;20.41;100.00
52319;BME280;38258;51.148;14.068;2023-07-29T06:40:10;97648.66;;;20.69;100.00
52319;BME280;38258;51.148;14.068;2023-07-29T06:42:37;97656.63;;;20.69;100.00
52319;BME280;38258;51.148;14.068;2023-07-29T06:45:05;97658.03;;;20.84;100.00
52319;BME280;38258;51.148;14.068;2023-07-29T06:47:32;97661.56;;;20.85;100.00
52319;BME280;38258;51.148;14.068;2023-07-29T06:50:00;97660.84;;;20.71;100.00
52319;BME280;38258;51.148;14.068;2023-07-29T06:52:27;97674.13;;;20.83;100.00
52319;BME280;38258;51.148;14.068;2023-07-29T06:54:54;97660.06;;;20.92;100.00
52319;BME280;38258;51.148;14.068;2023-07-29T06:57:21;97665.19;;;21.16;100.00
52319;BME280;38258;51.148;14.068;2023-07-29T06:59:48;97669.72;;;21.26;100.00
52319;BME280;38258;51.148;14.068;2023-07-29T07:02:14;97663.03;;;21.31;100.00
52319;BME280;38258;51.148;14.068;2023-07-29T07:04:41;97667.25;;;21.55;100.00
52319;BME280;38258;51.148;14.068;2023-07-29T07:07:09;97665.53;;;21.97;100.00
52319;BME280;38258;51.148;14.068;2023-07-29T07:09:36;97663.72;;;22.38;100.00
52319;BME280;38258;51.148;14.068;2023-07-29T07:12:03;97664.91;;;22.24;100.00
52319;BME280;38258;51.148;14.068;2023-07-29T07:14:30;97663.31;;;22.02;100.00
52319;BME280;38258;51.148;14.068;2023-07-29T07:16:57;97670.81;;;22.18;100.00
52319;BME280;38258;51.148;14.068;2023-07-29T07:19:24;97673.63;;;22.36;100.00
52319;BME280;38258;51.148;14.068;2023-07-29T07:21:51;97670.72;;;21.98;100.00
52319;BME280;38258;51.148;14.068;2023-07-29T07:24:19;97675.94;;;21.79;100.00
52319;BME280;38258;51.148;14.068;2023-07-29T07:26:46;97678.53;;;21.90;100.00
52319;BME280;38258;51.148;14.068;2023-07-29T07:29:13;97679.75;;;21.86;100.00
52319;BME280;38258;51.148;14.068;2023-07-29T07:31:40;97684.16;;;21.97;100.00
52319;BME280;38258;51.148;14.068;2023-07-29T07:34:07;97670.91;;;22.48;100.00
52319;BME280;38258;51.148;14.068;2023-07-29T07:36:34;97661.56;;;22.93;100.00
52319;BME280;38258;51.148;14.068;2023-07-29T07:39:00;97659.47;;;23.46;100.00
52319;BME280;38258;51.148;14.068;2023-07-29T07:41:28;97646.84;;;22.98;100.00
52319;BME280;38258;51.148;14.068;2023-07-29T07:43:55;97645.13;;;22.58;100.00
52319;BME280;38258;51.148;14.068;2023-07-29T07:46:22;97639.81;;;22.78;100.00
52319;BME280;38258;51.148;14.068;2023-07-29T07:48:49;97635.44;;;23.26;100.00
52319;BME280;38258;51.148;14.068;2023-07-29T07:51:15;97629.56;;;22.63;100.00
52319;BME280;38258;51.148;14.068;2023-07-29T07:53:45;97621.50;;;22.43;100.00
52319;BME280;38258;51.148;14.068;2023-07-29T07:56:12;97629.84;;;23.39;100.00
52319;BME280;38258;51.148;14.068;2023-07-29T07:58:41;97620.31;;;23.74;100.00
52319;BME280;38258;51.148;14.068;2023-07-29T08:01:09;97612.25;;;23.84;100.00
52319;BME280;38258;51.148;14.068;2023-07-29T08:03:36;97612.16;;;24.13;100.00
52319;BME280;38258;51.148;14.068;2023-07-29T08:06:04;97613.53;;;25.00;97.56
52319;BME280;38258;51.148;14.068;2023-07-29T08:08:31;97613.13;;;23.84;96.50
52319;BME280;38258;51.148;14.068;2023-07-29T08:10:58;97610.31;;;23.38;100.00
52319;BME280;38258;51.148;14.068;2023-07-29T08:13:29;97611.03;;;23.11;99.98
52319;BME280;38258;51.148;14.068;2023-07-29T08:15:58;97603.88;;;23.11;100.00
52319;BME280;38258;51.148;14.068;2023-07-29T08:18:25;97606.13;;;23.73;97.25
52319;BME280;38258;51.148;14.068;2023-07-29T08:20:53;97595.59;;;23.72;97.91
52319;BME280;38258;51.148;14.068;2023-07-29T08:23:21;97590.03;;;23.93;94.64
52319;BME280;38258;51.148;14.068;2023-07-29T08:25:52;97599.53;;;24.34;94.31
52319;BME280;38258;51.148;14.068;2023-07-29T08:28:19;97599.34;;;23.89;93.72
52319;BME280;38258;51.148;14.068;2023-07-29T08:30:46;97598.16;;;23.64;95.35
52319;BME280;38258;51.148;14.068;2023-07-29T08:33:14;97600.84;;;23.54;98.56
52319;BME280;38258;51.148;14.068;2023-07-29T08:35:41;97594.78;;;23.62;100.00
52319;BME280;38258;51.148;14.068;2023-07-29T08:38:08;97596.94;;;23.48;98.24
52319;BME280;38258;51.148;14.068;2023-07-29T08:40:35;97595.97;;;23.39;97.30
52319;BME280;38258;51.148;14.068;2023-07-29T08:43:04;97594.13;;;23.88;97.59
52319;BME280;38258;51.148;14.068;2023-07-29T08:45:34;97594.69;;;23.81;94.68
52319;BME280;38258;51.148;14.068;2023-07-29T08:48:02;97593.38;;;23.67;90.42
52319;BME280;38258;51.148;14.068;2023-07-29T08:50:35;97592.72;;;23.55;89.13
52319;BME280;38258;51.148;14.068;2023-07-29T08:53:04;97590.09;;;23.73;91.46
52319;BME280;38258;51.148;14.068;2023-07-29T08:55:31;97596.56;;;23.33;93.70
52319;BME280;38258;51.148;14.068;2023-07-29T08:57:59;97600.47;;;23.19;95.15
52319;BME280;38258;51.148;14.068;2023-07-29T09:00:28;97611.44;;;23.16;100.00
52319;BME280;38258;51.148;14.068;2023-07-29T09:02:55;97606.41;;;23.13;97.08
52319;BME280;38258;51.148;14.068;2023-07-29T09:05:23;97606.53;;;23.31;94.32
52319;BME280;38258;51.148;14.068;2023-07-29T09:07:52;97608.34;;;23.40;93.33
52319;BME280;38258;51.148;14.068;2023-07-29T09:10:21;97615.13;;;23.72;92.07
52319;BME280;38258;51.148;14.068;2023-07-29T09:12:48;97616.56;;;23.57;91.15
52319;BME280;38258;51.148;14.068;2023-07-29T09:15:26;97621.81;;;23.19;88.16
52319;BME280;38258;51.148;14.068;2023-07-29T09:17:55;97618.13;;;23.60;89.71
52319;BME280;38258;51.148;14.068;2023-07-29T09:20:25;97613.13;;;23.84;89.25
52319;BME280;38258;51.148;14.068;2023-07-29T09:22:55;97609.44;;;24.23;83.18
52319;BME280;38258;51.148;14.068;2023-07-29T09:25:25;97616.09;;;24.37;85.63
52319;BME280;38258;51.148;14.068;2023-07-29T09:27:52;97619.66;;;24.00;82.67
52319;BME280;38258;51.148;14.068;2023-07-29T09:30:19;97613.56;;;23.80;83.46
52319;BME280;38258;51.148;14.068;2023-07-29T09:32:46;97606.59;;;23.97;87.98
52319;BME280;38258;51.148;14.068;2023-07-29T09:35:13;97605.97;;;24.13;85.98
52319;BME280;38258;51.148;14.068;2023-07-29T09:37:39;97615.81;;;24.12;85.51
52319;BME280;38258;51.148;14.068;2023-07-29T09:40:14;97609.84;;;23.91;83.36
52319;BME280;38258;51.148;14.068;2023-07-29T09:42:48;97610.66;;;24.01;85.72
52319;BME280;38258;51.148;14.068;2023-07-29T09:45:22;97603.28;;;23.37;86.48
52319;BME280;38258;51.148;14.068;2023-07-29T09:47:50;97605.41;;;23.71;87.87
52319;BME280;38258;51.148;14.068;2023-07-29T09:50:21;97599.22;;;24.37;81.77
52319;BME280;38258;51.148;14.068;2023-07-29T09:52:57;97593.56;;;25.39;76.20
52319;BME280;38258;51.148;14.068;2023-07-29T09:55:27;97600.13;;;25.63;69.26
52319;BME280;38258;51.148;14.068;2023-07-29T09:57:56;97594.78;;;25.45;72.15
52319;BME280;38258;51.148;14.068;2023-07-29T10:00:23;97594.09;;;24.90;76.19
52319;BME280;38258;51.148;14.068;2023-07-29T10:02:50;97595.31;;;25.22;76.29
52319;BME280;38258;51.148;14.068;2023-07-29T10:05:19;97596.22;;;24.86;74.59
52319;BME280;38258;51.148;14.068;2023-07-29T10:07:47;97593.88;;;25.09;75.79
52319;BME280;38258;51.148;14.068;2023-07-29T10:10:15;97598.78;;;24.60;73.90
52319;BME280;38258;51.148;14.068;2023-07-29T10:12:44;97595.50;;;24.66;76.01
52319;BME280;38258;51.148;14.068;2023-07-29T10:15:11;97598.41;;;24.54;76.79
52319;BME280;38258;51.148;14.068;2023-07-29T10:17:39;97589.91;;;24.95;77.97
52319;BME280;38258;51.148;14.068;2023-07-29T10:20:08;97594.31;;;24.78;78.66
52319;BME280;38258;51.148;14.068;2023-07-29T10:22:36;97584.22;;;24.54;77.25
52319;BME280;38258;51.148;14.068;2023-07-29T10:25:07;97578.38;;;24.59;83.04
52319;BME280;38258;51.148;14.068;2023-07-29T10:27:42;97568.53;;;24.59;78.89
52319;BME280;38258;51.148;14.068;2023-07-29T10:30:11;97557.06;;;24.49;79.01
52319;BME280;38258;51.148;14.068;2023-07-29T10:32:41;97562.47;;;24.21;81.26
52319;BME280;38258;51.148;14.068;2023-07-29T10:35:09;97567.72;;;23.84;87.37
52319;BME280;38258;51.148;14.068;2023-07-29T10:37:36;97564.63;;;23.89;85.91
52319;BME280;38258;51.148;14.068;2023-07-29T10:40:07;97570.47;;;23.93;88.11
52319;BME280;38258;51.148;14.068;2023-07-29T10:42:34;97572.41;;;24.00;87.89
52319;BME280;38258;51.148;14.068;2023-07-29T10:47:55;97585.31;;;23.39;94.90
52319;BME280;38258;51.148;14.068;2023-07-29T10:50:22;97608.25;;;22.02;100.00
52319;BME280;38258;51.148;14.068;2023-07-29T10:52:50;97605.88;;;21.04;100.00
52319;BME280;38258;51.148;14.068;2023-07-29T10:55:28;97605.56;;;20.98;100.00
52319;BME280;38258;51.148;14.068;2023-07-29T10:58:11;97591.94;;;21.33;100.00
52319;BME280;38258;51.148;14.068;2023-07-29T11:00:38;97582.38;;;21.52;100.00
52319;BME280;38258;51.148;14.068;2023-07-29T11:03:07;97579.22;;;22.09;100.00
52319;BME280;38258;51.148;14.068;2023-07-29T11:05:48;97569.94;;;22.54;100.00
52319;BME280;38258;51.148;14.068;2023-07-29T11:08:19;97560.34;;;23.68;100.00
52319;BME280;38258;51.148;14.068;2023-07-29T11:11:14;97557.81;;;23.95;100.00
52319;BME280;38258;51.148;14.068;2023-07-29T11:13:40;97566.16;;;24.92;100.00
52319;BME280;38258;51.148;14.068;2023-07-29T11:16:10;97556.78;;;25.15;100.00
52319;BME280;38258;51.148;14.068;2023-07-29T11:18:38;97551.34;;;24.80;100.00
52319;BME280;38258;51.148;14.068;2023-07-29T11:21:07;97554.19;;;24.96;100.00
52319;BME280;38258;51.148;14.068;2023-07-29T11:23:35;97547.38;;;25.29;100.00
52319;BME280;38258;51.148;14.068;2023-07-29T11:26:03;97544.19;;;25.94;100.00
52319;BME280;38258;51.148;14.068;2023-07-29T11:28:30;97544.63;;;24.76;100.00
52319;BME280;38258;51.148;14.068;2023-07-29T11:30:57;97550.50;;;24.61;100.00
52319;BME280;38258;51.148;14.068;2023-07-29T11:33:25;97545.69;;;23.72;100.00
52319;BME280;38258;51.148;14.068;2023-07-29T11:35:55;97571.47;;;23.06;100.00
52319;BME280;38258;51.148;14.068;2023-07-29T11:38:22;97559.28;;;22.64;100.00
52319;BME280;38258;51.148;14.068;2023-07-29T11:40:58;97565.16;;;22.68;100.00
52319;BME280;38258;51.148;14.068;2023-07-29T11:43:25;97551.44;;;22.72;100.00
52319;BME280;38258;51.148;14.068;2023-07-29T11:45:53;97551.50;;;23.10;100.00
52319;BME280;38258;51.148;14.068;2023-07-29T11:48:26;97540.69;;;23.22;100.00
52319;BME280;38258;51.148;14.068;2023-07-29T11:50:55;97553.09;;;23.03;100.00
52319;BME280;38258;51.148;14.068;2023-07-29T11:53:22;97559.72;;;22.59;100.00
52319;BME280;38258;51.148;14.068;2023-07-29T11:55:50;97551.66;;;22.20;100.00
52319;BME280;38258;51.148;14.068;2023-07-29T11:58:18;97543.09;;;22.07;100.00
52319;BME280;38258;51.148;14.068;2023-07-29T12:00:44;97541.69;;;22.12;100.00
52319;BME280;38258;51.148;14.068;2023-07-29T12:03:11;97545.63;;;22.18;100.00
52319;BME280;38258;51.148;14.068;2023-07-29T12:05:39;97558.38;;;22.05;100.00
52319;BME280;38258;51.148;14.068;2023-07-29T12:08:07;97549.09;;;21.99;100.00
52319;BME280;38258;51.148;14.068;2023-07-29T12:10:35;97550.59;;;21.92;100.00
52319;BME280;38258;51.148;14.068;2023-07-29T12:13:02;97548.91;;;21.81;100.00
52319;BME280;38258;51.148;14.068;2023-07-29T12:15:30;97537.53;;;21.69;100.00
52319;BME280;38258;51.148;14.068;2023-07-29T12:17:57;97541.34;;;21.86;100.00
52319;BME280;38258;51.148;14.068;2023-07-29T12:20:24;97529.88;;;21.95;100.00
52319;BME280;38258;51.148;14.068;2023-07-29T12:22:52;97531.88;;;22.03;100.00
52319;BME280;38258;51.148;14.068;2023-07-29T12:25:21;97524.84;;;21.92;100.00
52319;BME280;38258;51.148;14.068;2023-07-29T12:27:48;97521.38;;;22.21;100.00
52319;BME280;38258;51.148;14.068;2023-07-29T12:30:15;97521.25;;;22.42;100.00
52319;BME280;38258;51.148;14.068;2023-07-29T12:32:46;97508.91;;;22.41;100.00
52319;BME280;38258;51.148;14.068;2023-07-29T12:35:13;97509.63;;;22.53;100.00
52319;BME280;38258;51.148;14.068;2023-07-29T12:37:40;97504.19;;;22.55;100.00
52319;BME280;38258;51.148;14.068;2023-07-29T12:40:21;97501.34;;;22.66;100.00
52319;BME280;38258;51.148;14.068;2023-07-29T12:42:50;97500.94;;;22.61;100.00
52319;BME280;38258;51.148;14.068;2023-07-29T12:45:17;97509.06;;;22.69;100.00
52319;BME280;38258;51.148;14.068;2023-07-29T12:47:44;97502.88;;;22.69;100.00
52319;BME280;38258;51.148;14.068;2023-07-29T12:50:11;97504.31;;;22.53;100.00